Grand Forks, North Dakota
Current Conditions -  °F | °C
As of 4:13 PM on Wednesday 28 Jan 2015 (Local Time) from KGFK Reporting Station
Overcast Overcast  
Wind Chill: -4°   Ceiling: 500
Heat Index:   Visibility: 7mi
Dew Point:   Wind: 13mph
Humidity: 93%   Direction: 340°NNW
Pressure: 29.82"   Gusts: NA
Location:  47.92°N, 97.03°W
Report Text: KGFK 282213Z 34011KT 7SM OVC005 01/00 A2982 RMK AO2 CIG 002V009
Loading
Personal Weather Stations






























Interactive Weather Map New forecast layout! Learn more

10-Day Weather Forecast

Advertisements
Track Severe Weather on mobile